createdAt,value
2023-02-08T20:13:00.339Z,93651.47
2023-02-08T20:18:02.676Z,93648.78
2023-02-08T20:23:14.019Z,93662.41
2023-02-08T20:28:19.226Z,93670.00
2023-02-08T20:33:21.020Z,93657.44
2023-02-08T20:38:22.905Z,93670.66
2023-02-08T20:43:24.677Z,93668.59
2023-02-08T20:48:26.386Z,93667.19
2023-02-08T20:53:28.064Z,93672.69
2023-02-08T20:58:29.742Z,93675.47
2023-02-08T21:03:31.468Z,93677.19
2023-02-08T21:08:33.304Z,93666.44
2023-02-08T21:13:38.459Z,93683.81
2023-02-08T21:18:41.111Z,93689.44
2023-02-08T21:23:44.267Z,93695.81
2023-02-08T21:28:46.784Z,93693.03
2023-02-08T21:33:49.921Z,93700.94
2023-02-08T21:38:52.102Z,93696.91
2023-02-08T21:43:56.118Z,93696.19
2023-02-08T21:49:16.943Z,93680.97
2023-02-08T21:54:42.598Z,93691.88
2023-02-08T21:59:45.806Z,93655.97
2023-02-08T22:04:48.074Z,93679.66
2023-02-08T22:09:50.472Z,93676.00
2023-02-08T22:14:52.513Z,93676.28
2023-02-08T22:19:54.505Z,93673.66
2023-02-08T22:24:56.560Z,93669.66
2023-02-08T22:29:58.333Z,93670.63
2023-02-08T22:35:00.143Z,93668.97
2023-02-08T22:40:02.129Z,93672.28
2023-02-08T22:45:04.190Z,93667.38
2023-02-08T22:50:07.320Z,93673.97
2023-02-08T22:55:09.182Z,93676.38
2023-02-08T23:00:14.857Z,93686.97
2023-02-08T23:05:16.680Z,93671.97
2023-02-08T23:10:18.575Z,93669.84
2023-02-08T23:15:20.350Z,93663.19
2023-02-08T23:20:22.256Z,93679.00
2023-02-08T23:25:24.088Z,93684.75
2023-02-08T23:30:25.844Z,93668.09
2023-02-08T23:35:27.703Z,93672.47
2023-02-08T23:40:29.518Z,93681.16
2023-02-08T23:45:31.491Z,93678.31
2023-02-08T23:50:33.642Z,93684.00
2023-02-08T23:55:35.465Z,93699.19
